createdAt,value
2018-08-28T00:00:20.923Z,13.21
2018-08-28T00:01:20.659Z,13.36
2018-08-28T00:02:20.915Z,13.29
2018-08-28T00:03:20.652Z,13.32
2018-08-28T00:04:20.643Z,13.4
2018-08-28T00:05:20.893Z,13.44
2018-08-28T00:06:20.636Z,13.48
2018-08-28T00:07:20.871Z,13.45
2018-08-28T00:08:20.868Z,13.45
2018-08-28T00:09:20.863Z,13.47
2018-08-28T00:10:20.853Z,13.44
2018-08-28T00:11:20.588Z,13.42
2018-08-28T00:12:20.580Z,13.4
2018-08-28T00:13:20.572Z,13.4
2018-08-28T00:14:20.831Z,13.39
2018-08-28T00:15:20.824Z,13.37
2018-08-28T00:16:20.813Z,13.4
2018-08-28T00:17:20.547Z,13.37
2018-08-28T00:18:20.801Z,13.35
2018-08-28T00:19:20.789Z,13.44
2018-08-28T00:20:20.267Z,13.36
2018-08-28T00:21:20.776Z,13.29
2018-08-28T00:22:20.775Z,13.27
2018-08-28T00:23:20.770Z,13.32
2018-08-28T00:24:20.753Z,13.24
2018-08-28T00:25:20.748Z,13.28
2018-08-28T00:26:20.740Z,13.24
2018-08-28T00:27:20.733Z,13.21
2018-08-28T00:28:20.735Z,13.27
2018-08-28T00:29:20.720Z,13.24
2018-08-28T00:30:20.709Z,13.2
2018-08-28T00:31:20.710Z,13.13
2018-08-28T00:32:20.698Z,13.25
2018-08-28T00:33:20.689Z,13.13
2018-08-28T00:34:20.428Z,13.09
2018-08-28T00:35:20.674Z,13.11
2018-08-28T00:36:20.410Z,13.1
2018-08-28T00:37:20.659Z,13.09
2018-08-28T00:38:20.667Z,13.16
2018-08-28T00:39:20.391Z,13.11
2018-08-28T00:40:20.395Z,13.11
2018-08-28T00:41:20.632Z,13.09
2018-08-28T00:42:20.367Z,13.16
2018-08-28T00:43:20.617Z,13.09
2018-08-28T00:44:20.612Z,13.14
2018-08-28T00:45:20.348Z,13.14
2018-08-28T00:46:20.596Z,13.25
2018-08-28T00:47:20.337Z,13.19
2018-08-28T00:48:20.579Z,13.21
2018-08-28T00:49:20.579Z,13.21
2018-08-28T00:50:20.312Z,13.31
2018-08-28T00:51:20.302Z,13.24
2018-08-28T00:52:20.693Z,13.27
2018-08-28T00:53:20.287Z,13.29
2018-08-28T00:54:20.536Z,13.31
2018-08-28T00:55:20.526Z,13.35
2018-08-28T00:56:20.520Z,13.37
2018-08-28T00:57:20.518Z,13.42
2018-08-28T00:58:20.508Z,13.48
2018-08-28T00:59:20.502Z,13.45
2018-08-28T01:00:20.241Z,13.45
2018-08-28T01:01:19.973Z,13.53
2018-08-28T01:02:20.221Z,13.63
2018-08-28T01:03:20.472Z,13.62
2018-08-28T01:04:20.468Z,13.7
2018-08-28T01:05:20.456Z,13.65
2018-08-28T01:06:20.461Z,13.75
2018-08-28T01:07:20.450Z,13.83
2018-08-28T01:08:20.181Z,13.76
2018-08-28T01:09:20.174Z,13.88
2018-08-28T01:10:20.421Z,13.88
2018-08-28T01:11:20.159Z,13.91
2018-08-28T01:12:20.153Z,13.94
2018-08-28T01:13:20.412Z,13.97
2018-08-28T01:14:20.398Z,14.06
2018-08-28T01:15:20.384Z,14.09
2018-08-28T01:16:20.390Z,14.09
2018-08-28T01:17:20.371Z,14.13
2018-08-28T01:18:20.363Z,14.11
2018-08-28T01:19:20.360Z,14.09
2018-08-28T01:20:20.356Z,14.05
2018-08-28T01:21:20.348Z,14.05
2018-08-28T01:22:20.339Z,14.02
2018-08-28T01:23:20.075Z,13.99
2018-08-28T01:24:20.071Z,13.99
2018-08-28T01:25:20.322Z,13.97
2018-08-28T01:26:20.309Z,13.88
2018-08-28T01:27:20.301Z,13.93
2018-08-28T01:28:20.295Z,13.87
2018-08-28T01:29:20.293Z,13.88
2018-08-28T01:30:20.301Z,13.83
2018-08-28T01:31:20.276Z,13.9
2018-08-28T01:32:20.019Z,13.97
2018-08-28T01:33:20.003Z,13.95
2018-08-28T01:34:20.261Z,13.97
2018-08-28T01:35:20.256Z,14.11
2018-08-28T01:36:20.245Z,14.11
2018-08-28T01:37:19.987Z,14.09
2018-08-28T01:38:20.239Z,14.11
2018-08-28T01:39:20.226Z,14.16
2018-08-28T01:40:20.221Z,14.12
2018-08-28T01:41:20.213Z,14.15
2018-08-28T01:42:20.203Z,14.09
2018-08-28T01:43:19.946Z,14.11
2018-08-28T01:44:20.187Z,14.11
2018-08-28T01:45:19.930Z,14.19
2018-08-28T01:46:20.175Z,14.2
2018-08-28T01:47:20.173Z,14.15
2018-08-28T01:48:19.906Z,14.3
2018-08-28T01:49:20.160Z,14.28
2018-08-28T01:50:19.893Z,14.3
2018-08-28T01:51:20.142Z,14.34
2018-08-28T01:52:20.136Z,14.24
2018-08-28T01:53:20.128Z,14.21
2018-08-28T01:54:19.866Z,14.34
2018-08-28T01:55:20.121Z,14.28
2018-08-28T01:56:20.110Z,14.31
2018-08-28T01:57:19.850Z,14.24
2018-08-28T01:58:20.099Z,14.2
2018-08-28T01:59:19.837Z,14.12
2018-08-28T02:00:19.831Z,14.11
2018-08-28T02:01:20.081Z,14.12
2018-08-28T02:02:20.081Z,14.01
2018-08-28T02:03:20.073Z,13.99
2018-08-28T02:04:20.060Z,13.94
2018-08-28T02:05:19.795Z,13.84
2018-08-28T02:06:19.796Z,13.9
2018-08-28T02:07:20.040Z,13.78
2018-08-28T02:08:20.038Z,13.78
2018-08-28T02:09:20.028Z,13.79
2018-08-28T02:10:19.761Z,13.73
2018-08-28T02:11:19.757Z,13.79
2018-08-28T02:12:19.759Z,13.87
2018-08-28T02:13:20.314Z,13.84
2018-08-28T02:14:20.003Z,13.87
2018-08-28T02:15:19.731Z,13.95
2018-08-28T02:16:19.719Z,13.93
2018-08-28T02:17:19.717Z,14.11
2018-08-28T02:18:19.708Z,14.15
2018-08-28T02:19:19.968Z,14.06
2018-08-28T02:20:19.957Z,14.11
2018-08-28T02:21:19.693Z,14.13
2018-08-28T02:22:19.707Z,14.24
2018-08-28T02:23:19.932Z,14.31
2018-08-28T02:24:19.925Z,14.26
2018-08-28T02:25:19.921Z,14.28
2018-08-28T02:26:19.656Z,14.3
2018-08-28T02:27:19.907Z,14.27
2018-08-28T02:28:19.908Z,14.27
2018-08-28T02:29:19.905Z,14.3
2018-08-28T02:30:19.900Z,14.36
2018-08-28T02:31:19.625Z,14.31
2018-08-28T02:32:19.891Z,14.27
2018-08-28T02:33:19.879Z,14.31
2018-08-28T02:34:19.870Z,14.3
2018-08-28T02:35:19.860Z,14.3
2018-08-28T02:36:19.600Z,14.27
2018-08-28T02:37:19.631Z,14.3
2018-08-28T02:38:19.869Z,14.27
2018-08-28T02:39:19.584Z,14.19
2018-08-28T02:40:19.829Z,14.12
2018-08-28T02:41:19.814Z,14.12
2018-08-28T02:42:19.817Z,14.08
2018-08-28T02:43:19.814Z,13.95
2018-08-28T02:44:19.797Z,13.94
2018-08-28T02:45:19.788Z,13.86
2018-08-28T02:46:19.788Z,13.81
2018-08-28T02:47:19.777Z,13.81
2018-08-28T02:48:19.521Z,13.68
2018-08-28T02:49:19.765Z,13.63
2018-08-28T02:50:19.758Z,13.55
2018-08-28T02:51:19.750Z,13.53
2018-08-28T02:52:19.485Z,13.39
2018-08-28T02:53:19.480Z,13.5
2018-08-28T02:54:19.739Z,13.45
2018-08-28T02:55:19.729Z,13.45
2018-08-28T02:56:20.012Z,13.5
2018-08-28T02:57:19.461Z,13.4
2018-08-28T02:58:19.710Z,13.45
2018-08-28T02:59:19.703Z,13.5
2018-08-28T03:00:19.690Z,13.58
2018-08-28T03:01:19.683Z,13.66
2018-08-28T03:02:19.680Z,13.72
2018-08-28T03:03:19.676Z,13.7
2018-08-28T03:04:19.666Z,13.79
2018-08-28T03:05:19.400Z,13.78
2018-08-28T03:06:19.651Z,13.83
2018-08-28T03:07:19.392Z,13.86
2018-08-28T03:08:19.642Z,13.94
2018-08-28T03:09:19.373Z,13.94
2018-08-28T03:10:19.368Z,13.94
2018-08-28T03:11:19.712Z,13.94
2018-08-28T03:12:19.095Z,13.95
2018-08-28T03:13:19.352Z,13.99
2018-08-28T03:14:19.600Z,13.99
2018-08-28T03:15:19.637Z,13.97
2018-08-28T03:16:19.586Z,14.02
2018-08-28T03:17:19.576Z,13.99
2018-08-28T03:18:19.574Z,13.99
2018-08-28T03:19:19.574Z,14.01
2018-08-28T03:20:19.555Z,14.12
2018-08-28T03:21:19.558Z,14.06
2018-08-28T03:22:19.545Z,14.05
2018-08-28T03:23:19.281Z,14.12
2018-08-28T03:24:19.532Z,14.13
2018-08-28T03:25:19.529Z,14.13
2018-08-28T03:26:19.519Z,14.15
2018-08-28T03:27:19.531Z,14.16
2018-08-28T03:28:19.510Z,14.21
2018-08-28T03:29:19.244Z,14.16
2018-08-28T03:30:19.503Z,14.23
2018-08-28T03:31:19.491Z,14.27
2018-08-28T03:32:19.482Z,14.24
2018-08-28T03:33:19.473Z,14.3
2018-08-28T03:34:19.466Z,14.33
2018-08-28T03:35:19.202Z,14.33
2018-08-28T03:36:19.451Z,14.3
2018-08-28T03:37:19.188Z,14.27
2018-08-28T03:38:19.184Z,14.39
2018-08-28T03:39:19.437Z,14.33
2018-08-28T03:40:19.432Z,14.42
2018-08-28T03:41:19.168Z,14.36
2018-08-28T03:42:19.154Z,14.46
2018-08-28T03:43:19.150Z,14.28
2018-08-28T03:44:18.890Z,14.39
2018-08-28T03:45:19.394Z,14.41
2018-08-28T03:46:18.880Z,14.51
2018-08-28T03:47:19.391Z,14.41
2018-08-28T03:48:19.372Z,14.49
2018-08-28T03:49:19.374Z,14.49
2018-08-28T03:50:19.361Z,14.51
2018-08-28T03:51:19.353Z,14.48
2018-08-28T03:52:19.384Z,14.46
2018-08-28T03:53:19.087Z,14.51
2018-08-28T03:54:19.082Z,14.48
2018-08-28T03:55:19.466Z,14.49
2018-08-28T03:56:19.321Z,14.48
2018-08-28T03:57:19.313Z,14.45
2018-08-28T03:58:19.054Z,14.48
2018-08-28T03:59:19.306Z,14.51
2018-08-28T04:00:19.045Z,14.48
2018-08-28T04:01:19.295Z,14.49
2018-08-28T04:02:19.286Z,14.52
2018-08-28T04:03:19.025Z,14.46
2018-08-28T04:04:19.021Z,14.48
2018-08-28T04:05:19.007Z,14.61
2018-08-28T04:06:19.005Z,14.53
2018-08-28T04:07:19.255Z,14.57
2018-08-28T04:08:19.249Z,14.49
2018-08-28T04:09:19.248Z,14.6
2018-08-28T04:10:18.977Z,14.63
2018-08-28T04:11:19.235Z,14.63
2018-08-28T04:12:19.221Z,14.69
2018-08-28T04:13:19.271Z,14.69
2018-08-28T04:14:19.211Z,14.66
2018-08-28T04:15:19.206Z,14.6
2018-08-28T04:16:18.944Z,14.64
2018-08-28T04:17:19.193Z,14.69
2018-08-28T04:18:19.183Z,14.64
2018-08-28T04:19:19.187Z,14.66
2018-08-28T04:20:19.173Z,14.67
2018-08-28T04:21:18.917Z,14.71
2018-08-28T04:22:19.165Z,14.66
2018-08-28T04:23:18.639Z,14.61
2018-08-28T04:24:19.151Z,14.69
2018-08-28T04:25:18.886Z,14.64
2018-08-28T04:26:19.137Z,14.7
2018-08-28T04:27:19.133Z,14.64
2018-08-28T04:28:19.123Z,14.69
2018-08-28T04:29:18.858Z,14.74
2018-08-28T04:30:19.221Z,14.7
2018-08-28T04:31:18.852Z,14.61
2018-08-28T04:32:19.101Z,14.7
2018-08-28T04:33:19.093Z,14.63
2018-08-28T04:34:19.089Z,14.7
2018-08-28T04:35:19.081Z,14.75
2018-08-28T04:36:18.817Z,14.69
2018-08-28T04:37:18.811Z,14.66
2018-08-28T04:38:19.062Z,14.69
2018-08-28T04:39:18.799Z,14.69
2018-08-28T04:40:19.060Z,14.66
2018-08-28T04:41:18.789Z,14.63
2018-08-28T04:42:19.038Z,14.63
2018-08-28T04:43:19.032Z,14.71
2018-08-28T04:44:19.032Z,14.64
2018-08-28T04:45:19.015Z,14.64
2018-08-28T04:46:19.020Z,14.67
2018-08-28T04:47:18.752Z,14.79
2018-08-28T04:48:19.002Z,14.66
2018-08-28T04:49:18.995Z,14.74
2018-08-28T04:50:18.736Z,14.71
2018-08-28T04:51:18.724Z,14.66
2018-08-28T04:52:18.978Z,14.71
2018-08-28T04:53:18.970Z,14.69
2018-08-28T04:54:18.530Z,14.67
2018-08-28T04:55:18.961Z,14.67
2018-08-28T04:56:18.695Z,14.74
2018-08-28T04:57:18.946Z,14.71
2018-08-28T04:58:18.685Z,14.77
2018-08-28T04:59:18.936Z,14.71
2018-08-28T05:00:18.676Z,14.77
2018-08-28T05:01:18.930Z,14.82
2018-08-28T05:02:18.660Z,14.7
2018-08-28T05:03:18.656Z,14.83
2018-08-28T05:04:18.904Z,14.77
2018-08-28T05:05:18.902Z,14.75
2018-08-28T05:06:18.892Z,14.86
2018-08-28T05:07:18.630Z,14.83
2018-08-28T05:08:18.880Z,14.8
2018-08-28T05:09:18.874Z,14.89
2018-08-28T05:10:18.866Z,14.85
2018-08-28T05:11:18.604Z,14.9
2018-08-28T05:12:18.859Z,14.87
2018-08-28T05:13:18.849Z,15
2018-08-28T05:14:18.842Z,15.01
2018-08-28T05:15:18.580Z,15
2018-08-28T05:16:18.836Z,15.05
2018-08-28T05:17:18.826Z,15.01
2018-08-28T05:18:18.563Z,15.02
2018-08-28T05:19:18.718Z,15.04
2018-08-28T05:20:18.813Z,15.05
2018-08-28T05:21:18.806Z,15.07
2018-08-28T05:22:18.798Z,15.13
2018-08-28T05:23:18.791Z,15.15
2018-08-28T05:24:18.784Z,15.12
2018-08-28T05:25:18.784Z,15.23
2018-08-28T05:26:18.513Z,15.16
2018-08-28T05:27:18.250Z,15.1
2018-08-28T05:28:18.761Z,15.26
2018-08-28T05:29:18.299Z,15.26
2018-08-28T05:30:18.803Z,15.13
2018-08-28T05:31:18.757Z,15.13
2018-08-28T05:32:18.740Z,15.23
2018-08-28T05:33:18.731Z,15.25
2018-08-28T05:34:18.727Z,15.31
2018-08-28T05:35:18.719Z,15.27
2018-08-28T05:36:18.715Z,15.4
2018-08-28T05:37:18.732Z,15.34
2018-08-28T05:38:18.718Z,15.47
2018-08-28T05:39:18.701Z,15.34
2018-08-28T05:40:18.694Z,15.44
2018-08-28T05:41:18.692Z,15.41
2018-08-28T05:42:18.688Z,15.35
2018-08-28T05:43:18.680Z,15.47
2018-08-28T05:44:18.675Z,15.4
2018-08-28T05:45:18.678Z,15.41
2018-08-28T05:46:18.656Z,15.49
2018-08-28T05:47:18.652Z,15.49
2018-08-28T05:48:18.650Z,15.53
2018-08-28T05:49:18.698Z,15.56
2018-08-28T05:50:18.634Z,15.53
2018-08-28T05:51:18.630Z,15.55
2018-08-28T05:52:18.369Z,15.62
2018-08-28T05:53:18.360Z,15.6
2018-08-28T05:54:18.610Z,15.74
2018-08-28T05:55:18.610Z,15.7
2018-08-28T05:56:19.124Z,15.73
2018-08-28T05:57:18.595Z,15.84
2018-08-28T05:58:18.592Z,15.84
2018-08-28T05:59:18.582Z,15.93
2018-08-28T06:00:18.586Z,15.95
2018-08-28T06:01:18.319Z,15.95
2018-08-28T06:02:18.572Z,16.07
2018-08-28T06:03:18.687Z,16.04
2018-08-28T06:04:18.304Z,16.07
2018-08-28T06:05:18.291Z,16.13
2018-08-28T06:06:18.285Z,16.18
2018-08-28T06:07:18.543Z,16.29
2018-08-28T06:08:18.282Z,16.29
2018-08-28T06:09:18.530Z,16.25
2018-08-28T06:10:18.270Z,16.32
2018-08-28T06:11:18.520Z,16.33
2018-08-28T06:12:18.260Z,16.33
2018-08-28T06:13:18.252Z,16.37
2018-08-28T06:14:18.505Z,16.42
2018-08-28T06:15:18.245Z,16.45
2018-08-28T06:16:18.496Z,16.47
2018-08-28T06:17:18.233Z,16.42
2018-08-28T06:18:18.483Z,16.45
2018-08-28T06:19:18.480Z,16.45
2018-08-28T06:20:18.483Z,16.57
2018-08-28T06:21:18.470Z,16.63
2018-08-28T06:22:18.469Z,16.69
2018-08-28T06:23:18.464Z,16.84
2018-08-28T06:24:18.197Z,16.91
2018-08-28T06:25:18.454Z,16.91
2018-08-28T06:26:18.243Z,16.9
2018-08-28T06:27:18.186Z,16.82
2018-08-28T06:28:18.178Z,16.94
2018-08-28T06:29:18.433Z,17
2018-08-28T06:30:18.433Z,17.06
2018-08-28T06:31:18.164Z,17.06
2018-08-28T06:32:18.421Z,17.1
2018-08-28T06:33:18.425Z,17.13
2018-08-28T06:34:18.158Z,17.12
2018-08-28T06:35:18.407Z,17.22
2018-08-28T06:36:18.405Z,17.15
2018-08-28T06:37:18.509Z,17.25
2018-08-28T06:38:18.399Z,17.2
2018-08-28T06:39:18.396Z,17.28
2018-08-28T06:40:18.391Z,17.31
2018-08-28T06:41:18.385Z,17.32
2018-08-28T06:42:18.118Z,17.4
2018-08-28T06:43:18.373Z,17.43
2018-08-28T06:44:18.377Z,17.5
2018-08-28T06:45:18.371Z,17.5
2018-08-28T06:46:18.370Z,17.57
2018-08-28T06:47:18.101Z,17.49
2018-08-28T06:48:18.352Z,17.58
2018-08-28T06:49:18.091Z,17.6
2018-08-28T06:50:18.354Z,17.62
2018-08-28T06:51:18.341Z,17.55
2018-08-28T06:52:18.339Z,17.52
2018-08-28T06:53:18.332Z,17.57
2018-08-28T06:54:18.328Z,17.57
2018-08-28T06:55:18.326Z,17.58
2018-08-28T06:56:18.318Z,17.65
2018-08-28T06:57:18.315Z,17.5
2018-08-28T06:58:18.053Z,17.54
2018-08-28T06:59:18.312Z,17.49
2018-08-28T07:00:18.309Z,17.42
2018-08-28T07:01:18.060Z,17.49
2018-08-28T07:02:18.120Z,17.55
2018-08-28T07:03:18.037Z,17.69
2018-08-28T07:04:18.289Z,17.87
2018-08-28T07:05:18.285Z,18.01
2018-08-28T07:06:18.291Z,17.95
2018-08-28T07:07:18.278Z,18.03
2018-08-28T07:08:18.274Z,18.08
2018-08-28T07:09:18.015Z,18.01
2018-08-28T07:10:18.611Z,17.96
2018-08-28T07:11:18.006Z,17.99
2018-08-28T07:12:18.006Z,17.94
2018-08-28T07:13:17.998Z,18.06
2018-08-28T07:14:17.740Z,18.03
2018-08-28T07:15:17.995Z,18.19
2018-08-28T07:16:18.240Z,18.2
2018-08-28T07:17:18.249Z,18.19
2018-08-28T07:18:17.980Z,18.32
2018-08-28T07:19:18.236Z,18.44
2018-08-28T07:20:17.722Z,18.5
2018-08-28T07:21:18.228Z,18.51
2018-08-28T07:22:18.221Z,18.63
2018-08-28T07:23:18.220Z,18.79
2018-08-28T07:24:17.960Z,19.05
2018-08-28T07:25:17.957Z,19.35
2018-08-28T07:26:17.958Z,19.86
2018-08-28T07:27:18.226Z,20.01
2018-08-28T07:28:18.213Z,20.12
2018-08-28T07:29:18.221Z,20.12
2018-08-28T07:30:18.237Z,20.18
2018-08-28T07:31:18.376Z,20.34
2018-08-28T07:32:18.196Z,20.38
2018-08-28T07:33:18.191Z,20.78
2018-08-28T07:34:17.929Z,20.82
2018-08-28T07:35:17.929Z,20.94
2018-08-28T07:36:18.179Z,20.9
2018-08-28T07:37:18.332Z,20.82
2018-08-28T07:38:18.186Z,20.6
2018-08-28T07:39:17.662Z,20.3
2018-08-28T07:40:18.174Z,20.2
2018-08-28T07:41:17.912Z,19.97
2018-08-28T07:42:18.175Z,20.01
2018-08-28T07:43:17.910Z,20.04
2018-08-28T07:44:17.905Z,19.9
2018-08-28T07:45:18.163Z,19.9
2018-08-28T07:46:18.161Z,19.9
2018-08-28T07:47:18.158Z,19.86
2018-08-28T07:48:18.050Z,19.8
2018-08-28T07:49:17.898Z,19.7
2018-08-28T07:50:17.891Z,19.64
2018-08-28T07:51:17.894Z,19.57
2018-08-28T07:52:18.143Z,19.7
2018-08-28T07:53:17.888Z,19.74
2018-08-28T07:54:18.142Z,19.71
2018-08-28T07:55:18.140Z,19.74
2018-08-28T07:56:18.136Z,19.87
2018-08-28T07:57:17.626Z,19.92
2018-08-28T07:58:18.136Z,20.07
2018-08-28T07:59:18.130Z,20.08
2018-08-28T08:00:17.876Z,20.12
2018-08-28T08:01:18.200Z,20.26
2018-08-28T08:02:17.864Z,20.41
2018-08-28T08:03:18.127Z,20.49
2018-08-28T08:04:17.603Z,20.6
2018-08-28T08:05:17.863Z,20.71
2018-08-28T08:06:18.119Z,20.81
2018-08-28T08:07:18.115Z,20.79
2018-08-28T08:08:18.119Z,20.91
2018-08-28T08:09:18.117Z,20.9
2018-08-28T08:10:18.171Z,20.93
2018-08-28T08:11:18.111Z,20.81
2018-08-28T08:12:18.108Z,20.76
2018-08-28T08:13:18.110Z,20.74
2018-08-28T08:14:17.852Z,20.71
2018-08-28T08:15:18.104Z,20.56
2018-08-28T08:16:18.643Z,20.67
2018-08-28T08:17:18.101Z,20.74
2018-08-28T08:18:17.582Z,20.82
2018-08-28T08:19:18.104Z,20.88
2018-08-28T08:20:17.840Z,20.85
2018-08-28T08:21:17.838Z,21.12
2018-08-28T08:22:18.082Z,21.22
2018-08-28T08:23:17.836Z,21.27
2018-08-28T08:24:17.840Z,21.19
2018-08-28T08:25:18.093Z,21.22
2018-08-28T08:26:17.830Z,21.27
2018-08-28T08:27:18.085Z,21.22
2018-08-28T08:28:18.374Z,21.08
2018-08-28T08:29:17.831Z,20.96
2018-08-28T08:30:17.826Z,20.71
2018-08-28T08:31:18.078Z,20.64
2018-08-28T08:32:18.076Z,20.51
2018-08-28T08:33:18.093Z,20.41
2018-08-28T08:34:17.823Z,20.35
2018-08-28T08:35:17.888Z,20.27
2018-08-28T08:36:18.090Z,20.3
2018-08-28T08:37:17.821Z,20.29
2018-08-28T08:38:17.817Z,20.25
2018-08-28T08:39:18.091Z,20.12
2018-08-28T08:40:17.810Z,20.37
2018-08-28T08:41:18.072Z,20.42
2018-08-28T08:42:17.555Z,20.63
2018-08-28T08:43:18.071Z,20.46
2018-08-28T08:44:18.063Z,20.26
2018-08-28T08:45:18.068Z,20.27
2018-08-28T08:46:18.063Z,20.38
2018-08-28T08:47:18.066Z,20.41
2018-08-28T08:48:17.802Z,20.46
2018-08-28T08:49:18.058Z,20.35
2018-08-28T08:50:18.100Z,20.27
2018-08-28T08:51:18.170Z,20.08
2018-08-28T08:52:18.057Z,20.12
2018-08-28T08:53:18.050Z,20.08
2018-08-28T08:54:18.050Z,20.25
2018-08-28T08:55:18.049Z,20.38
2018-08-28T08:56:17.792Z,20.46
2018-08-28T08:57:18.331Z,20.41
2018-08-28T08:58:18.046Z,20.49
2018-08-28T08:59:18.042Z,20.53
2018-08-28T09:00:18.047Z,20.75
2018-08-28T09:01:17.780Z,20.86
2018-08-28T09:02:18.041Z,21.08
2018-08-28T09:03:18.044Z,21.11
2018-08-28T09:04:17.786Z,21.15
2018-08-28T09:05:17.790Z,21.19
2018-08-28T09:06:18.228Z,21.25
2018-08-28T09:07:17.779Z,21.38
2018-08-28T09:08:17.773Z,21.4
2018-08-28T09:09:18.032Z,21.46
2018-08-28T09:10:17.512Z,21.4
2018-08-28T09:11:17.773Z,21.36
2018-08-28T09:12:17.797Z,21.4
2018-08-28T09:13:18.202Z,21.46
2018-08-28T09:14:18.034Z,21.23
2018-08-28T09:15:18.032Z,21.06
2018-08-28T09:16:17.774Z,21
2018-08-28T09:17:18.023Z,20.9
2018-08-28T09:18:18.022Z,20.71
2018-08-28T09:19:17.884Z,20.64
2018-08-28T09:20:17.764Z,20.42
2018-08-28T09:21:17.765Z,20.38
2018-08-28T09:22:18.016Z,20.16
2018-08-28T09:23:18.019Z,20.18
2018-08-28T09:24:18.016Z,20.18
2018-08-28T09:25:18.010Z,20.12
2018-08-28T09:26:18.016Z,20.18
2018-08-28T09:27:17.754Z,20.44
2018-08-28T09:28:17.494Z,20.75
2018-08-28T09:29:18.006Z,21.01
2018-08-28T09:30:17.751Z,21.23
2018-08-28T09:31:17.799Z,21.53
2018-08-28T09:32:18.216Z,21.58
2018-08-28T09:33:18.008Z,21.62
2018-08-28T09:34:17.748Z,21.62
2018-08-28T09:35:18.005Z,21.62
2018-08-28T09:36:18.004Z,21.96
2018-08-28T09:37:17.998Z,22.09
2018-08-28T09:38:17.772Z,22.3
2018-08-28T09:39:17.745Z,22.42
2018-08-28T09:40:17.997Z,22.64
2018-08-28T09:41:17.997Z,22.71
2018-08-28T09:42:17.742Z,22.79
2018-08-28T09:43:17.741Z,22.82
2018-08-28T09:44:18.000Z,22.96
2018-08-28T09:45:17.750Z,22.89
2018-08-28T09:46:17.997Z,22.88
2018-08-28T09:47:17.479Z,22.78
2018-08-28T09:48:18.609Z,22.81
2018-08-28T09:49:18.005Z,22.89
2018-08-28T09:50:18.323Z,22.92
2018-08-28T09:51:18.010Z,23.04
2018-08-28T09:52:18.008Z,23.01
2018-08-28T09:53:17.994Z,23.01
2018-08-28T09:54:18.014Z,22.76
2018-08-28T09:55:18.007Z,22.64
2018-08-28T09:56:18.001Z,22.45
2018-08-28T09:57:18.003Z,22.27
2018-08-28T09:58:17.994Z,21.97
2018-08-28T09:59:17.740Z,21.93
2018-08-28T10:00:17.994Z,21.82
2018-08-28T10:01:17.993Z,21.74
2018-08-28T10:02:17.777Z,21.58
2018-08-28T10:03:17.993Z,21.48
2018-08-28T10:04:17.990Z,21.37
2018-08-28T10:05:17.993Z,21.27
2018-08-28T10:06:17.735Z,21.21
2018-08-28T10:07:17.992Z,21.21
2018-08-28T10:08:17.991Z,21.18
2018-08-28T10:09:17.992Z,21.28
2018-08-28T10:10:17.991Z,21.38
2018-08-28T10:11:17.990Z,21.46
2018-08-28T10:12:17.730Z,21.55
2018-08-28T10:13:17.995Z,21.62
2018-08-28T10:14:17.991Z,21.55
2018-08-28T10:15:17.732Z,21.49
2018-08-28T10:16:17.986Z,21.46
2018-08-28T10:17:18.098Z,21.41
2018-08-28T10:18:17.986Z,21.36
2018-08-28T10:19:17.731Z,21.21
2018-08-28T10:20:18.027Z,21.25
2018-08-28T10:21:17.986Z,21.28
2018-08-28T10:22:17.727Z,21.16
2018-08-28T10:23:17.984Z,21.18
2018-08-28T10:24:17.726Z,21.25
2018-08-28T10:25:17.728Z,21.19
2018-08-28T10:26:17.723Z,21.15
2018-08-28T10:27:17.981Z,21.21
2018-08-28T10:28:17.979Z,21.43
2018-08-28T10:29:17.738Z,21.74
2018-08-28T10:30:17.796Z,22
2018-08-28T10:31:17.979Z,22.3
2018-08-28T10:32:17.986Z,22.59
2018-08-28T10:33:17.976Z,22.85
2018-08-28T10:34:17.977Z,23.06
2018-08-28T10:35:17.979Z,23.04
2018-08-28T10:36:17.733Z,23
2018-08-28T10:37:17.767Z,22.99
2018-08-28T10:38:18.422Z,23
2018-08-28T10:39:17.736Z,23.01
2018-08-28T10:40:17.976Z,23.01
2018-08-28T10:41:17.720Z,23.04
2018-08-28T10:42:17.719Z,22.99
2018-08-28T10:43:17.974Z,23.01
2018-08-28T10:44:17.725Z,23.22
2018-08-28T10:45:17.720Z,23.29
2018-08-28T10:46:17.882Z,23.34
2018-08-28T10:47:17.978Z,23.53
2018-08-28T10:48:17.979Z,23.47
2018-08-28T10:49:17.975Z,23.44
2018-08-28T10:50:17.975Z,23.32
2018-08-28T10:51:17.983Z,23.35
2018-08-28T10:52:17.720Z,23.21
2018-08-28T10:53:17.982Z,23.04
2018-08-28T10:54:17.991Z,23.01
2018-08-28T10:55:17.991Z,22.96
2018-08-28T10:56:17.983Z,22.76
2018-08-28T10:57:17.979Z,22.57
2018-08-28T10:58:17.726Z,22.45
2018-08-28T10:59:17.725Z,22.44
2018-08-28T11:00:17.985Z,22.33
2018-08-28T11:01:17.987Z,22.27
2018-08-28T11:02:17.979Z,22.2
2018-08-28T11:03:17.727Z,22.15
2018-08-28T11:04:17.982Z,22.09
2018-08-28T11:05:17.978Z,22.16
2018-08-28T11:06:18.044Z,22.16
2018-08-28T11:07:17.726Z,22.16
2018-08-28T11:08:17.984Z,22.09
2018-08-28T11:09:17.979Z,22.14
2018-08-28T11:10:17.726Z,21.97
2018-08-28T11:11:17.992Z,22.04
2018-08-28T11:12:17.983Z,22.07
2018-08-28T11:13:17.728Z,22.22
2018-08-28T11:14:17.987Z,22.42
2018-08-28T11:15:17.998Z,22.51
2018-08-28T11:16:18.345Z,22.73
2018-08-28T11:17:17.991Z,22.81
2018-08-28T11:18:17.727Z,22.61
2018-08-28T11:19:17.997Z,22.57
2018-08-28T11:20:17.993Z,22.54
2018-08-28T11:21:17.991Z,22.42
2018-08-28T11:22:18.094Z,22.33
2018-08-28T11:23:17.985Z,22.14
2018-08-28T11:24:17.990Z,22.07
2018-08-28T11:25:17.724Z,22.08
2018-08-28T11:26:17.989Z,22
2018-08-28T11:27:17.735Z,21.94
2018-08-28T11:28:17.731Z,21.99
2018-08-28T11:29:17.992Z,21.9
2018-08-28T11:30:17.729Z,21.9
2018-08-28T11:31:18.134Z,21.92
2018-08-28T11:32:17.986Z,21.82
2018-08-28T11:33:17.726Z,21.78
2018-08-28T11:34:17.733Z,21.8
2018-08-28T11:35:17.990Z,21.78
2018-08-28T11:36:17.725Z,21.97
2018-08-28T11:37:17.986Z,21.97
2018-08-28T11:38:18.140Z,22.26
2018-08-28T11:39:17.986Z,22.41
2018-08-28T11:40:17.995Z,22.46
2018-08-28T11:41:17.997Z,22.51
2018-08-28T11:42:17.993Z,22.66
2018-08-28T11:43:17.985Z,22.64
2018-08-28T11:44:17.467Z,22.92
2018-08-28T11:45:17.992Z,23.26
2018-08-28T11:46:17.723Z,23.4
2018-08-28T11:47:18.342Z,23.42
2018-08-28T11:48:17.987Z,23.42
2018-08-28T11:49:17.728Z,23.34
2018-08-28T11:50:17.989Z,23.09
2018-08-28T11:51:17.987Z,23
2018-08-28T11:52:17.829Z,22.71
2018-08-28T11:53:18.357Z,22.6
2018-08-28T11:54:17.724Z,22.46
2018-08-28T11:55:17.981Z,22.44
2018-08-28T11:56:17.468Z,22.18
2018-08-28T11:57:17.987Z,22.04
2018-08-28T11:58:17.991Z,21.9
2018-08-28T11:59:18.000Z,21.89
2018-08-28T12:00:17.725Z,21.68
2018-08-28T12:01:17.730Z,21.67
2018-08-28T12:02:17.986Z,21.49
2018-08-28T12:03:17.994Z,21.4
2018-08-28T12:04:17.988Z,21.33
2018-08-28T12:05:18.202Z,21.38
2018-08-28T12:06:17.990Z,21.48
2018-08-28T12:07:18.287Z,21.7
2018-08-28T12:08:17.725Z,21.78
2018-08-28T12:09:17.983Z,21.89
2018-08-28T12:10:17.984Z,22.11
2018-08-28T12:11:17.981Z,22.11
2018-08-28T12:12:17.992Z,22.18
2018-08-28T12:13:18.399Z,22.22
2018-08-28T12:14:17.729Z,22.29
2018-08-28T12:15:17.990Z,22.31
2018-08-28T12:16:17.736Z,22.36
2018-08-28T12:17:17.989Z,22.45
2018-08-28T12:18:17.724Z,22.52
2018-08-28T12:19:17.982Z,22.69
2018-08-28T12:20:18.022Z,22.79
2018-08-28T12:21:17.721Z,22.89
2018-08-28T12:22:17.467Z,22.91
2018-08-28T12:23:17.981Z,22.88
2018-08-28T12:24:17.983Z,22.88
2018-08-28T12:25:17.476Z,22.92
2018-08-28T12:26:17.985Z,22.94
2018-08-28T12:27:17.726Z,22.99
2018-08-28T12:28:17.986Z,22.89
2018-08-28T12:29:17.986Z,22.7
2018-08-28T12:30:17.987Z,22.76
2018-08-28T12:31:17.983Z,22.78
2018-08-28T12:32:17.984Z,22.61
2018-08-28T12:33:17.979Z,22.69
2018-08-28T12:34:17.983Z,22.41
2018-08-28T12:35:17.992Z,22.26
2018-08-28T12:36:17.724Z,22.04
2018-08-28T12:37:17.957Z,22.02
2018-08-28T12:38:17.988Z,21.92
2018-08-28T12:39:17.986Z,21.89
2018-08-28T12:40:17.475Z,21.85
2018-08-28T12:41:17.726Z,21.76
2018-08-28T12:42:17.727Z,21.82
2018-08-28T12:43:18.000Z,21.92
2018-08-28T12:44:17.985Z,21.94
2018-08-28T12:45:17.995Z,21.93
2018-08-28T12:46:18.073Z,21.94
2018-08-28T12:47:17.986Z,21.9
2018-08-28T12:48:17.989Z,21.94
2018-08-28T12:49:17.728Z,21.92
2018-08-28T12:50:17.987Z,21.86
2018-08-28T12:51:18.207Z,21.94
2018-08-28T12:52:17.978Z,21.96
2018-08-28T12:53:17.723Z,21.9
2018-08-28T12:54:17.724Z,21.83
2018-08-28T12:55:17.981Z,21.82
2018-08-28T12:56:17.982Z,21.86